sensor_id;sensor_type;location;lat;lon;timestamp;temperature;humidity
3850;DHT22;1940;51.052;13.678;2023-08-17T00:01:27;23.00;87.60
3850;DHT22;1940;51.052;13.678;2023-08-17T00:03:52;23.00;87.60
3850;DHT22;1940;51.052;13.678;2023-08-17T00:06:18;22.90;87.90
3850;DHT22;1940;51.052;13.678;2023-08-17T00:08:44;22.80;88.20
3850;DHT22;1940;51.052;13.678;2023-08-17T00:11:10;22.80;88.10
3850;DHT22;1940;51.052;13.678;2023-08-17T00:13:36;22.80;88.10
3850;DHT22;1940;51.052;13.678;2023-08-17T00:16:01;22.80;88.10
3850;DHT22;1940;51.052;13.678;2023-08-17T00:18:27;22.70;88.30
3850;DHT22;1940;51.052;13.678;2023-08-17T00:20:52;22.70;88.30
3850;DHT22;1940;51.052;13.678;2023-08-17T00:23:18;22.70;88.50
3850;DHT22;1940;51.052;13.678;2023-08-17T00:25:45;22.60;88.60
3850;DHT22;1940;51.052;13.678;2023-08-17T00:28:13;22.60;88.60
3850;DHT22;1940;51.052;13.678;2023-08-17T00:30:38;22.60;88.60
3850;DHT22;1940;51.052;13.678;2023-08-17T00:33:04;22.60;88.60
3850;DHT22;1940;51.052;13.678;2023-08-17T00:35:30;22.60;88.80
3850;DHT22;1940;51.052;13.678;2023-08-17T00:37:55;22.50;88.90
3850;DHT22;1940;51.052;13.678;2023-08-17T00:40:21;22.50;88.90
3850;DHT22;1940;51.052;13.678;2023-08-17T00:42:47;22.40;89.00
3850;DHT22;1940;51.052;13.678;2023-08-17T00:45:12;22.40;89.30
3850;DHT22;1940;51.052;13.678;2023-08-17T00:47:38;22.40;89.30
3850;DHT22;1940;51.052;13.678;2023-08-17T00:50:04;22.40;89.30
3850;DHT22;1940;51.052;13.678;2023-08-17T00:52:31;22.30;89.50
3850;DHT22;1940;51.052;13.678;2023-08-17T00:54:57;22.30;89.50
3850;DHT22;1940;51.052;13.678;2023-08-17T00:57:23;22.20;89.60
3850;DHT22;1940;51.052;13.678;2023-08-17T00:59:50;22.20;89.70
3850;DHT22;1940;51.052;13.678;2023-08-17T01:02:17;22.20;89.70
3850;DHT22;1940;51.052;13.678;2023-08-17T01:04:42;22.20;89.70
3850;DHT22;1940;51.052;13.678;2023-08-17T01:07:08;22.10;89.80
3850;DHT22;1940;51.052;13.678;2023-08-17T01:09:34;22.10;89.80
3850;DHT22;1940;51.052;13.678;2023-08-17T01:17:48;21.90;90.50
3850;DHT22;1940;51.052;13.678;2023-08-17T01:20:17;21.80;90.60
3850;DHT22;1940;51.052;13.678;2023-08-17T01:22:46;21.80;90.80
3850;DHT22;1940;51.052;13.678;2023-08-17T01:25:13;21.80;90.80
3850;DHT22;1940;51.052;13.678;2023-08-17T01:27:41;21.80;90.70
3850;DHT22;1940;51.052;13.678;2023-08-17T01:30:08;21.70;91.00
3850;DHT22;1940;51.052;13.678;2023-08-17T01:32:51;21.60;91.10
3850;DHT22;1940;51.052;13.678;2023-08-17T01:38:00;21.60;91.20
3850;DHT22;1940;51.052;13.678;2023-08-17T01:40:34;21.60;91.30
3850;DHT22;1940;51.052;13.678;2023-08-17T01:43:01;21.60;91.20
3850;DHT22;1940;51.052;13.678;2023-08-17T01:45:27;21.60;91.00
3850;DHT22;1940;51.052;13.678;2023-08-17T01:47:52;21.50;90.90
3850;DHT22;1940;51.052;13.678;2023-08-17T01:50:18;21.50;90.90
3850;DHT22;1940;51.052;13.678;2023-08-17T01:52:44;21.50;91.20
3850;DHT22;1940;51.052;13.678;2023-08-17T01:55:09;21.40;91.40
3850;DHT22;1940;51.052;13.678;2023-08-17T01:57:35;21.40;91.60
3850;DHT22;1940;51.052;13.678;2023-08-17T02:00:04;21.30;91.80
3850;DHT22;1940;51.052;13.678;2023-08-17T02:02:30;21.20;91.90
3850;DHT22;1940;51.052;13.678;2023-08-17T02:04:56;21.10;92.20
3850;DHT22;1940;51.052;13.678;2023-08-17T02:07:22;21.00;92.70
3850;DHT22;1940;51.052;13.678;2023-08-17T02:09:47;20.80;93.30
3850;DHT22;1940;51.052;13.678;2023-08-17T02:12:13;20.70;93.90
3850;DHT22;1940;51.052;13.678;2023-08-17T02:14:38;20.70;94.00
3850;DHT22;1940;51.052;13.678;2023-08-17T02:17:04;20.80;93.70
3850;DHT22;1940;51.052;13.678;2023-08-17T02:19:31;20.80;93.50
3850;DHT22;1940;51.052;13.678;2023-08-17T02:21:56;20.80;93.60
3850;DHT22;1940;51.052;13.678;2023-08-17T02:24:22;20.90;93.80
3850;DHT22;1940;51.052;13.678;2023-08-17T02:26:47;21.00;93.60
3850;DHT22;1940;51.052;13.678;2023-08-17T02:29:13;21.00;93.50
3850;DHT22;1940;51.052;13.678;2023-08-17T02:31:38;21.00;93.50
3850;DHT22;1940;51.052;13.678;2023-08-17T02:34:04;21.00;93.50
3850;DHT22;1940;51.052;13.678;2023-08-17T02:36:31;20.90;93.60
3850;DHT22;1940;51.052;13.678;2023-08-17T02:38:57;20.90;93.80
3850;DHT22;1940;51.052;13.678;2023-08-17T02:41:23;20.90;93.90
3850;DHT22;1940;51.052;13.678;2023-08-17T02:43:48;20.90;93.60
3850;DHT22;1940;51.052;13.678;2023-08-17T02:46:14;21.00;93.30
3850;DHT22;1940;51.052;13.678;2023-08-17T02:48:39;21.00;93.10
3850;DHT22;1940;51.052;13.678;2023-08-17T02:51:05;21.00;92.80
3850;DHT22;1940;51.052;13.678;2023-08-17T02:53:30;21.00;93.00
3850;DHT22;1940;51.052;13.678;2023-08-17T02:55:56;21.00;92.80
3850;DHT22;1940;51.052;13.678;2023-08-17T02:58:21;21.00;92.80
3850;DHT22;1940;51.052;13.678;2023-08-17T03:00:47;21.00;92.80
3850;DHT22;1940;51.052;13.678;2023-08-17T03:03:12;21.00;92.70
3850;DHT22;1940;51.052;13.678;2023-08-17T03:05:38;21.00;92.70
3850;DHT22;1940;51.052;13.678;2023-08-17T03:08:04;21.00;92.70
3850;DHT22;1940;51.052;13.678;2023-08-17T03:10:30;21.00;92.30
3850;DHT22;1940;51.052;13.678;2023-08-17T03:12:55;21.00;92.30
3850;DHT22;1940;51.052;13.678;2023-08-17T03:15:21;21.10;92.00
3850;DHT22;1940;51.052;13.678;2023-08-17T03:17:46;21.10;92.20
3850;DHT22;1940;51.052;13.678;2023-08-17T03:20:12;21.10;91.90
3850;DHT22;1940;51.052;13.678;2023-08-17T03:22:37;21.10;91.80
3850;DHT22;1940;51.052;13.678;2023-08-17T03:25:03;21.10;91.80
3850;DHT22;1940;51.052;13.678;2023-08-17T03:27:29;21.00;91.70
3850;DHT22;1940;51.052;13.678;2023-08-17T03:29:54;21.00;91.70
3850;DHT22;1940;51.052;13.678;2023-08-17T03:32:20;21.00;91.70
3850;DHT22;1940;51.052;13.678;2023-08-17T03:34:46;21.00;91.70
3850;DHT22;1940;51.052;13.678;2023-08-17T03:37:11;21.00;91.80
3850;DHT22;1940;51.052;13.678;2023-08-17T03:39:37;21.00;91.50
3850;DHT22;1940;51.052;13.678;2023-08-17T03:42:02;21.00;91.50
3850;DHT22;1940;51.052;13.678;2023-08-17T03:44:28;21.00;91.80
3850;DHT22;1940;51.052;13.678;2023-08-17T03:46:53;21.00;91.70
3850;DHT22;1940;51.052;13.678;2023-08-17T03:49:19;20.90;91.80
3850;DHT22;1940;51.052;13.678;2023-08-17T03:51:45;21.00;91.70
3850;DHT22;1940;51.052;13.678;2023-08-17T03:54:12;21.00;91.60
3850;DHT22;1940;51.052;13.678;2023-08-17T03:56:38;20.90;91.70
3850;DHT22;1940;51.052;13.678;2023-08-17T03:59:04;20.80;92.00
3850;DHT22;1940;51.052;13.678;2023-08-17T04:01:29;20.80;92.10
3850;DHT22;1940;51.052;13.678;2023-08-17T04:03:55;20.80;92.20
3850;DHT22;1940;51.052;13.678;2023-08-17T04:06:21;20.80;92.40
3850;DHT22;1940;51.052;13.678;2023-08-17T04:08:46;20.90;92.40
3850;DHT22;1940;51.052;13.678;2023-08-17T04:11:12;21.00;92.30
3850;DHT22;1940;51.052;13.678;2023-08-17T04:13:37;21.00;92.00
3850;DHT22;1940;51.052;13.678;2023-08-17T04:16:03;21.00;91.80
3850;DHT22;1940;51.052;13.678;2023-08-17T04:18:29;21.00;91.70
3850;DHT22;1940;51.052;13.678;2023-08-17T04:20:54;21.00;91.60
3850;DHT22;1940;51.052;13.678;2023-08-17T04:23:20;21.00;91.70
3850;DHT22;1940;51.052;13.678;2023-08-17T04:25:46;21.00;91.80
3850;DHT22;1940;51.052;13.678;2023-08-17T04:28:13;21.00;91.80
3850;DHT22;1940;51.052;13.678;2023-08-17T04:30:38;21.10;91.80
3850;DHT22;1940;51.052;13.678;2023-08-17T04:33:04;21.10;91.80
3850;DHT22;1940;51.052;13.678;2023-08-17T04:35:30;21.20;91.80
3850;DHT22;1940;51.052;13.678;2023-08-17T04:37:56;21.20;91.70
3850;DHT22;1940;51.052;13.678;2023-08-17T04:40:21;21.30;91.70
3850;DHT22;1940;51.052;13.678;2023-08-17T04:42:47;21.30;91.70
3850;DHT22;1940;51.052;13.678;2023-08-17T04:45:12;21.30;91.60
3850;DHT22;1940;51.052;13.678;2023-08-17T04:47:38;21.40;91.40
3850;DHT22;1940;51.052;13.678;2023-08-17T04:50:04;21.30;91.50
3850;DHT22;1940;51.052;13.678;2023-08-17T04:52:30;21.40;91.70
3850;DHT22;1940;51.052;13.678;2023-08-17T04:54:56;21.50;91.50
3850;DHT22;1940;51.052;13.678;2023-08-17T04:57:21;21.50;91.40
3850;DHT22;1940;51.052;13.678;2023-08-17T04:59:47;21.60;91.00
3850;DHT22;1940;51.052;13.678;2023-08-17T05:02:12;21.60;90.90
3850;DHT22;1940;51.052;13.678;2023-08-17T05:04:38;21.60;90.60
3850;DHT22;1940;51.052;13.678;2023-08-17T05:07:05;21.60;90.60
3850;DHT22;1940;51.052;13.678;2023-08-17T05:09:30;21.70;90.40
3850;DHT22;1940;51.052;13.678;2023-08-17T05:11:56;21.80;90.30
3850;DHT22;1940;51.052;13.678;2023-08-17T05:14:24;22.00;89.60
3850;DHT22;1940;51.052;13.678;2023-08-17T05:16:49;22.00;89.00
3850;DHT22;1940;51.052;13.678;2023-08-17T05:19:15;22.10;88.70
3850;DHT22;1940;51.052;13.678;2023-08-17T05:21:40;22.10;88.50
3850;DHT22;1940;51.052;13.678;2023-08-17T05:24:06;22.00;88.70
3850;DHT22;1940;51.052;13.678;2023-08-17T05:26:32;22.00;89.00
3850;DHT22;1940;51.052;13.678;2023-08-17T05:28:57;22.00;89.20
3850;DHT22;1940;51.052;13.678;2023-08-17T05:31:23;22.00;89.30
3850;DHT22;1940;51.052;13.678;2023-08-17T05:33:48;21.90;89.20
3850;DHT22;1940;51.052;13.678;2023-08-17T05:36:14;22.10;89.00
3850;DHT22;1940;51.052;13.678;2023-08-17T05:38:39;22.30;88.90
3850;DHT22;1940;51.052;13.678;2023-08-17T05:41:05;22.90;88.10
3850;DHT22;1940;51.052;13.678;2023-08-17T05:43:30;23.80;85.20
3850;DHT22;1940;51.052;13.678;2023-08-17T05:45:59;24.70;81.40
3850;DHT22;1940;51.052;13.678;2023-08-17T05:48:25;25.50;78.90
3850;DHT22;1940;51.052;13.678;2023-08-17T05:50:50;26.20;77.20
3850;DHT22;1940;51.052;13.678;2023-08-17T05:53:16;26.70;75.60
3850;DHT22;1940;51.052;13.678;2023-08-17T05:55:41;26.80;74.50
3850;DHT22;1940;51.052;13.678;2023-08-17T05:58:07;27.00;74.50
3850;DHT22;1940;51.052;13.678;2023-08-17T06:00:33;26.90;74.40
3850;DHT22;1940;51.052;13.678;2023-08-17T06:02:58;27.50;73.50
3850;DHT22;1940;51.052;13.678;2023-08-17T06:05:27;27.60;72.30
3850;DHT22;1940;51.052;13.678;2023-08-17T06:07:54;27.00;74.00
3850;DHT22;1940;51.052;13.678;2023-08-17T06:10:20;27.20;74.00
3850;DHT22;1940;51.052;13.678;2023-08-17T06:12:46;27.60;73.20
3850;DHT22;1940;51.052;13.678;2023-08-17T06:15:11;28.00;71.90
3850;DHT22;1940;51.052;13.678;2023-08-17T06:17:37;27.90;71.80
3850;DHT22;1940;51.052;13.678;2023-08-17T06:20:02;27.00;73.70
3850;DHT22;1940;51.052;13.678;2023-08-17T06:22:28;26.40;75.10
3850;DHT22;1940;51.052;13.678;2023-08-17T06:24:54;25.70;76.80
3850;DHT22;1940;51.052;13.678;2023-08-17T06:27:20;25.60;77.00
3850;DHT22;1940;51.052;13.678;2023-08-17T06:29:45;25.20;77.80
3850;DHT22;1940;51.052;13.678;2023-08-17T06:32:11;24.90;78.50
3850;DHT22;1940;51.052;13.678;2023-08-17T06:34:36;24.60;79.50
3850;DHT22;1940;51.052;13.678;2023-08-17T06:37:03;24.40;80.00
3850;DHT22;1940;51.052;13.678;2023-08-17T06:39:29;24.10;81.20
3850;DHT22;1940;51.052;13.678;2023-08-17T06:41:55;24.00;81.40
3850;DHT22;1940;51.052;13.678;2023-08-17T06:44:20;23.90;81.60
3850;DHT22;1940;51.052;13.678;2023-08-17T06:46:46;23.90;82.20
3850;DHT22;1940;51.052;13.678;2023-08-17T06:49:12;24.00;81.70
3850;DHT22;1940;51.052;13.678;2023-08-17T06:51:38;24.00;81.80
3850;DHT22;1940;51.052;13.678;2023-08-17T06:54:05;24.10;81.90
3850;DHT22;1940;51.052;13.678;2023-08-17T06:56:32;24.40;81.10
3850;DHT22;1940;51.052;13.678;2023-08-17T06:58:57;24.80;79.80
3850;DHT22;1940;51.052;13.678;2023-08-17T07:01:23;25.00;79.40
3850;DHT22;1940;51.052;13.678;2023-08-17T07:03:49;25.50;77.90
3850;DHT22;1940;51.052;13.678;2023-08-17T07:06:14;25.90;76.90
3850;DHT22;1940;51.052;13.678;2023-08-17T07:08:40;25.90;76.70
3850;DHT22;1940;51.052;13.678;2023-08-17T07:11:05;26.30;75.30
3850;DHT22;1940;51.052;13.678;2023-08-17T07:13:31;27.40;73.80
3850;DHT22;1940;51.052;13.678;2023-08-17T07:15:57;28.00;70.80
3850;DHT22;1940;51.052;13.678;2023-08-17T07:18:23;28.40;70.30
3850;DHT22;1940;51.052;13.678;2023-08-17T07:20:48;28.90;69.00
3850;DHT22;1940;51.052;13.678;2023-08-17T07:23:14;29.10;68.70
3850;DHT22;1940;51.052;13.678;2023-08-17T07:25:40;29.30;67.70
3850;DHT22;1940;51.052;13.678;2023-08-17T07:28:06;29.70;67.00
3850;DHT22;1940;51.052;13.678;2023-08-17T07:30:32;30.80;64.60
3850;DHT22;1940;51.052;13.678;2023-08-17T07:32:57;31.70;63.00
3850;DHT22;1940;51.052;13.678;2023-08-17T07:35:23;32.50;60.70
3850;DHT22;1940;51.052;13.678;2023-08-17T07:37:48;32.70;60.20
3850;DHT22;1940;51.052;13.678;2023-08-17T07:40:14;33.40;59.20
3850;DHT22;1940;51.052;13.678;2023-08-17T07:42:40;33.50;58.60
3850;DHT22;1940;51.052;13.678;2023-08-17T07:45:05;33.60;58.70
3850;DHT22;1940;51.052;13.678;2023-08-17T07:47:34;33.20;59.40
3850;DHT22;1940;51.052;13.678;2023-08-17T07:50:01;32.80;59.90
3850;DHT22;1940;51.052;13.678;2023-08-17T07:52:27;33.00;59.40
3850;DHT22;1940;51.052;13.678;2023-08-17T07:54:54;33.60;58.40
3850;DHT22;1940;51.052;13.678;2023-08-17T07:57:19;34.30;56.90
3850;DHT22;1940;51.052;13.678;2023-08-17T07:59:45;34.40;56.60
3850;DHT22;1940;51.052;13.678;2023-08-17T08:02:10;34.60;56.00
3850;DHT22;1940;51.052;13.678;2023-08-17T08:04:36;34.80;55.80
3850;DHT22;1940;51.052;13.678;2023-08-17T08:07:01;35.20;55.50
3850;DHT22;1940;51.052;13.678;2023-08-17T08:09:27;35.40;54.50
3850;DHT22;1940;51.052;13.678;2023-08-17T08:11:52;35.10;55.50
3850;DHT22;1940;51.052;13.678;2023-08-17T08:14:18;35.00;55.70
3850;DHT22;1940;51.052;13.678;2023-08-17T08:16:43;35.60;54.30
3850;DHT22;1940;51.052;13.678;2023-08-17T08:19:09;35.80;53.80
3850;DHT22;1940;51.052;13.678;2023-08-17T08:21:34;36.00;53.30
3850;DHT22;1940;51.052;13.678;2023-08-17T08:24:00;36.30;53.10
3850;DHT22;1940;51.052;13.678;2023-08-17T08:26:25;35.90;53.50
3850;DHT22;1940;51.052;13.678;2023-08-17T08:28:51;36.10;53.20
3850;DHT22;1940;51.052;13.678;2023-08-17T08:31:17;36.20;52.80
3850;DHT22;1940;51.052;13.678;2023-08-17T08:33:43;35.90;53.30
3850;DHT22;1940;51.052;13.678;2023-08-17T08:36:09;36.40;52.50
3850;DHT22;1940;51.052;13.678;2023-08-17T08:38:34;36.40;52.40
3850;DHT22;1940;51.052;13.678;2023-08-17T08:41:01;36.60;52.30
3850;DHT22;1940;51.052;13.678;2023-08-17T08:43:27;36.30;52.60
3850;DHT22;1940;51.052;13.678;2023-08-17T08:45:54;35.80;54.00
3850;DHT22;1940;51.052;13.678;2023-08-17T08:48:22;35.10;55.10
3850;DHT22;1940;51.052;13.678;2023-08-17T08:50:49;34.30;56.50
3850;DHT22;1940;51.052;13.678;2023-08-17T08:53:17;33.80;56.80
3850;DHT22;1940;51.052;13.678;2023-08-17T08:55:56;33.20;57.90
3850;DHT22;1940;51.052;13.678;2023-08-17T08:58:23;32.70;59.40
3850;DHT22;1940;51.052;13.678;2023-08-17T09:00:50;32.50;60.00
3850;DHT22;1940;51.052;13.678;2023-08-17T09:03:16;32.40;60.40
3850;DHT22;1940;51.052;13.678;2023-08-17T09:05:47;32.60;59.70
3850;DHT22;1940;51.052;13.678;2023-08-17T09:08:15;32.40;60.10
3850;DHT22;1940;51.052;13.678;2023-08-17T09:10:41;32.50;59.30
3850;DHT22;1940;51.052;13.678;2023-08-17T09:13:07;32.50;59.50
3850;DHT22;1940;51.052;13.678;2023-08-17T09:15:34;32.30;60.20
3850;DHT22;1940;51.052;13.678;2023-08-17T09:17:59;32.30;60.40
3850;DHT22;1940;51.052;13.678;2023-08-17T09:20:45;31.80;61.20
3850;DHT22;1940;51.052;13.678;2023-08-17T09:23:12;31.90;61.10
3850;DHT22;1940;51.052;13.678;2023-08-17T09:25:39;31.70;61.10
3850;DHT22;1940;51.052;13.678;2023-08-17T09:30:53;31.80;61.80
3850;DHT22;1940;51.052;13.678;2023-08-17T09:33:22;32.30;60.10
3850;DHT22;1940;51.052;13.678;2023-08-17T09:35:49;32.40;59.50
3850;DHT22;1940;51.052;13.678;2023-08-17T09:38:15;32.10;60.00
3850;DHT22;1940;51.052;13.678;2023-08-17T09:40:41;32.30;59.60
3850;DHT22;1940;51.052;13.678;2023-08-17T09:43:08;33.50;56.90
3850;DHT22;1940;51.052;13.678;2023-08-17T09:45:36;34.60;55.50
3850;DHT22;1940;51.052;13.678;2023-08-17T09:48:02;35.00;54.30
3850;DHT22;1940;51.052;13.678;2023-08-17T09:50:28;35.90;52.80
3850;DHT22;1940;51.052;13.678;2023-08-17T09:52:54;36.50;52.40
3850;DHT22;1940;51.052;13.678;2023-08-17T09:55:22;36.10;53.10
3850;DHT22;1940;51.052;13.678;2023-08-17T09:57:49;36.30;52.50
3850;DHT22;1940;51.052;13.678;2023-08-17T10:00:16;36.80;50.70
3850;DHT22;1940;51.052;13.678;2023-08-17T10:02:43;37.00;50.60
3850;DHT22;1940;51.052;13.678;2023-08-17T10:05:11;37.00;50.60
3850;DHT22;1940;51.052;13.678;2023-08-17T10:07:40;37.10;50.60
3850;DHT22;1940;51.052;13.678;2023-08-17T10:10:07;38.00;49.50
3850;DHT22;1940;51.052;13.678;2023-08-17T10:12:37;38.70;48.10
3850;DHT22;1940;51.052;13.678;2023-08-17T10:15:09;38.90;47.50
3850;DHT22;1940;51.052;13.678;2023-08-17T10:17:43;39.00;47.50
3850;DHT22;1940;51.052;13.678;2023-08-17T10:20:09;38.90;47.70
3850;DHT22;1940;51.052;13.678;2023-08-17T10:25:25;39.20;47.40
3850;DHT22;1940;51.052;13.678;2023-08-17T10:27:53;39.10;47.80
3850;DHT22;1940;51.052;13.678;2023-08-17T10:30:19;39.60;46.30
3850;DHT22;1940;51.052;13.678;2023-08-17T10:32:45;39.40;47.00
3850;DHT22;1940;51.052;13.678;2023-08-17T10:35:13;39.40;46.60
3850;DHT22;1940;51.052;13.678;2023-08-17T10:37:39;39.60;47.00
3850;DHT22;1940;51.052;13.678;2023-08-17T10:40:06;39.70;47.00
3850;DHT22;1940;51.052;13.678;2023-08-17T10:42:33;40.30;46.00
3850;DHT22;1940;51.052;13.678;2023-08-17T10:45:01;40.00;46.10
3850;DHT22;1940;51.052;13.678;2023-08-17T10:47:30;39.70;47.10
3850;DHT22;1940;51.052;13.678;2023-08-17T10:50:23;39.80;46.80
3850;DHT22;1940;51.052;13.678;2023-08-17T10:52:50;39.60;47.00
3850;DHT22;1940;51.052;13.678;2023-08-17T10:55:16;38.80;48.10
3850;DHT22;1940;51.052;13.678;2023-08-17T10:57:45;38.20;49.40
3850;DHT22;1940;51.052;13.678;2023-08-17T11:00:24;37.70;49.50
3850;DHT22;1940;51.052;13.678;2023-08-17T11:02:59;37.70;50.20
3850;DHT22;1940;51.052;13.678;2023-08-17T11:05:44;38.50;49.20
3850;DHT22;1940;51.052;13.678;2023-08-17T11:08:19;39.10;48.60
3850;DHT22;1940;51.052;13.678;2023-08-17T11:11:11;39.40;48.20
3850;DHT22;1940;51.052;13.678;2023-08-17T11:13:39;39.00;49.00
3850;DHT22;1940;51.052;13.678;2023-08-17T11:16:06;39.30;48.00
3850;DHT22;1940;51.052;13.678;2023-08-17T11:18:32;39.20;48.60
3850;DHT22;1940;51.052;13.678;2023-08-17T11:20:59;39.20;49.00
3850;DHT22;1940;51.052;13.678;2023-08-17T11:23:29;39.10;48.20
3850;DHT22;1940;51.052;13.678;2023-08-17T11:25:55;38.90;48.80
3850;DHT22;1940;51.052;13.678;2023-08-17T11:28:21;38.40;49.60
3850;DHT22;1940;51.052;13.678;2023-08-17T11:31:00;38.00;50.10
3850;DHT22;1940;51.052;13.678;2023-08-17T11:33:27;37.20;50.90
3850;DHT22;1940;51.052;13.678;2023-08-17T11:35:57;37.00;52.20
3850;DHT22;1940;51.052;13.678;2023-08-17T11:38:23;36.60;52.50
3850;DHT22;1940;51.052;13.678;2023-08-17T11:40:49;35.50;55.20
3850;DHT22;1940;51.052;13.678;2023-08-17T11:43:15;34.60;56.10
3850;DHT22;1940;51.052;13.678;2023-08-17T11:45:41;33.80;57.50
3850;DHT22;1940;51.052;13.678;2023-08-17T11:48:07;33.30;58.70
3850;DHT22;1940;51.052;13.678;2023-08-17T11:50:32;32.90;59.60
3850;DHT22;1940;51.052;13.678;2023-08-17T11:53:01;32.60;59.60
3850;DHT22;1940;51.052;13.678;2023-08-17T11:55:27;32.30;60.70
3850;DHT22;1940;51.052;13.678;2023-08-17T11:57:53;32.10;61.30
3850;DHT22;1940;51.052;13.678;2023-08-17T12:00:20;32.10;62.10
3850;DHT22;1940;51.052;13.678;2023-08-17T12:02:50;32.20;61.70
3850;DHT22;1940;51.052;13.678;2023-08-17T12:05:23;32.20;61.10
3850;DHT22;1940;51.052;13.678;2023-08-17T12:07:50;32.30;60.70
3850;DHT22;1940;51.052;13.678;2023-08-17T12:10:17;32.20;60.20
3850;DHT22;1940;51.052;13.678;2023-08-17T12:12:42;31.90;61.70
3850;DHT22;1940;51.052;13.678;2023-08-17T12:15:10;31.80;61.20
3850;DHT22;1940;51.052;13.678;2023-08-17T12:17:44;31.80;61.20
3850;DHT22;1940;51.052;13.678;2023-08-17T12:20:15;32.00;60.80
3850;DHT22;1940;51.052;13.678;2023-08-17T12:22:41;32.20;61.50
3850;DHT22;1940;51.052;13.678;2023-08-17T12:25:08;32.40;61.60
3850;DHT22;1940;51.052;13.678;2023-08-17T12:27:34;32.50;60.60
3850;DHT22;1940;51.052;13.678;2023-08-17T12:29:59;32.70;60.00
3850;DHT22;1940;51.052;13.678;2023-08-17T12:32:25;32.90;58.90
3850;DHT22;1940;51.052;13.678;2023-08-17T12:34:50;32.90;59.30
3850;DHT22;1940;51.052;13.678;2023-08-17T12:37:20;32.90;59.20
3850;DHT22;1940;51.052;13.678;2023-08-17T12:39:48;32.90;59.70
3850;DHT22;1940;51.052;13.678;2023-08-17T12:42:14;32.60;60.00
3850;DHT22;1940;51.052;13.678;2023-08-17T12:44:41;32.40;60.30
3850;DHT22;1940;51.052;13.678;2023-08-17T12:47:06;32.20;60.40
3850;DHT22;1940;51.052;13.678;2023-08-17T12:49:32;32.30;60.10
3850;DHT22;1940;51.052;13.678;2023-08-17T12:51:57;32.20;58.90
3850;DHT22;1940;51.052;13.678;2023-08-17T12:54:23;31.90;57.80
3850;DHT22;1940;51.052;13.678;2023-08-17T12:56:48;31.60;58.00
3850;DHT22;1940;51.052;13.678;2023-08-17T12:59:14;31.40;58.20
3850;DHT22;1940;51.052;13.678;2023-08-17T13:01:39;31.20;59.60
3850;DHT22;1940;51.052;13.678;2023-08-17T13:04:05;31.20;59.30
3850;DHT22;1940;51.052;13.678;2023-08-17T13:06:31;31.30;58.80
3850;DHT22;1940;51.052;13.678;2023-08-17T13:08:57;31.20;59.60
3850;DHT22;1940;51.052;13.678;2023-08-17T13:11:23;31.20;58.80
3850;DHT22;1940;51.052;13.678;2023-08-17T13:13:48;31.40;58.50
3850;DHT22;1940;51.052;13.678;2023-08-17T13:16:14;31.50;58.10
3850;DHT22;1940;51.052;13.678;2023-08-17T13:18:39;31.60;57.70
3850;DHT22;1940;51.052;13.678;2023-08-17T13:21:05;31.60;57.70
3850;DHT22;1940;51.052;13.678;2023-08-17T13:23:30;31.60;56.90
3850;DHT22;1940;51.052;13.678;2023-08-17T13:25:56;31.60;56.90
3850;DHT22;1940;51.052;13.678;2023-08-17T13:28:21;31.80;58.50
3850;DHT22;1940;51.052;13.678;2023-08-17T13:30:47;32.00;57.10
3850;DHT22;1940;51.052;13.678;2023-08-17T13:33:13;32.10;56.10
3850;DHT22;1940;51.052;13.678;2023-08-17T13:35:38;32.20;55.50
3850;DHT22;1940;51.052;13.678;2023-08-17T13:38:04;32.10;55.70
3850;DHT22;1940;51.052;13.678;2023-08-17T13:40:31;32.10;55.90
3850;DHT22;1940;51.052;13.678;2023-08-17T13:42:57;32.00;55.00
3850;DHT22;1940;51.052;13.678;2023-08-17T13:45:24;32.10;55.90
3850;DHT22;1940;51.052;13.678;2023-08-17T13:47:49;32.10;54.90
3850;DHT22;1940;51.052;13.678;2023-08-17T13:50:15;32.20;55.60
3850;DHT22;1940;51.052;13.678;2023-08-17T13:52:40;32.20;55.00
3850;DHT22;1940;51.052;13.678;2023-08-17T13:55:06;32.20;54.80
3850;DHT22;1940;51.052;13.678;2023-08-17T13:57:32;32.30;55.10
3850;DHT22;1940;51.052;13.678;2023-08-17T13:59:57;32.30;55.80
3850;DHT22;1940;51.052;13.678;2023-08-17T14:02:23;32.30;55.70
3850;DHT22;1940;51.052;13.678;2023-08-17T14:04:48;32.30;54.80
3850;DHT22;1940;51.052;13.678;2023-08-17T14:07:14;32.20;54.00
3850;DHT22;1940;51.052;13.678;2023-08-17T14:09:39;32.00;54.80
3850;DHT22;1940;51.052;13.678;2023-08-17T14:12:05;31.90;54.60
3850;DHT22;1940;51.052;13.678;2023-08-17T14:14:31;31.70;55.30
3850;DHT22;1940;51.052;13.678;2023-08-17T14:16:56;31.40;56.20
3850;DHT22;1940;51.052;13.678;2023-08-17T14:19:23;30.90;57.30
3850;DHT22;1940;51.052;13.678;2023-08-17T14:21:48;30.50;58.40
3850;DHT22;1940;51.052;13.678;2023-08-17T14:24:14;30.30;59.10
3850;DHT22;1940;51.052;13.678;2023-08-17T14:26:40;30.20;59.90
3850;DHT22;1940;51.052;13.678;2023-08-17T14:29:05;30.00;60.50
3850;DHT22;1940;51.052;13.678;2023-08-17T14:31:31;29.80;61.00
3850;DHT22;1940;51.052;13.678;2023-08-17T14:33:56;29.80;60.80
3850;DHT22;1940;51.052;13.678;2023-08-17T14:36:22;29.60;61.00
3850;DHT22;1940;51.052;13.678;2023-08-17T14:38:48;29.40;61.30
3850;DHT22;1940;51.052;13.678;2023-08-17T14:41:13;29.40;61.20
3850;DHT22;1940;51.052;13.678;2023-08-17T14:43:39;29.50;62.20
3850;DHT22;1940;51.052;13.678;2023-08-17T14:46:04;29.50;62.90
3850;DHT22;1940;51.052;13.678;2023-08-17T14:48:30;29.50;63.50
3850;DHT22;1940;51.052;13.678;2023-08-17T14:50:56;29.50;63.60
3850;DHT22;1940;51.052;13.678;2023-08-17T14:53:21;29.60;64.30
3850;DHT22;1940;51.052;13.678;2023-08-17T14:55:47;29.60;64.60
3850;DHT22;1940;51.052;13.678;2023-08-17T14:58:12;29.60;64.30
3850;DHT22;1940;51.052;13.678;2023-08-17T15:00:39;29.70;64.80
3850;DHT22;1940;51.052;13.678;2023-08-17T15:03:04;30.00;63.90
3850;DHT22;1940;51.052;13.678;2023-08-17T15:05:30;30.00;63.10
3850;DHT22;1940;51.052;13.678;2023-08-17T15:07:56;30.10;62.60
3850;DHT22;1940;51.052;13.678;2023-08-17T15:10:22;30.20;63.10
3850;DHT22;1940;51.052;13.678;2023-08-17T15:12:47;30.40;60.70
3850;DHT22;1940;51.052;13.678;2023-08-17T15:15:14;30.50;63.80
3850;DHT22;1940;51.052;13.678;2023-08-17T15:17:39;30.80;63.90
3850;DHT22;1940;51.052;13.678;2023-08-17T15:20:05;30.90;64.20
3850;DHT22;1940;51.052;13.678;2023-08-17T15:22:31;31.10;63.00
3850;DHT22;1940;51.052;13.678;2023-08-17T15:24:57;31.20;63.20
3850;DHT22;1940;51.052;13.678;2023-08-17T15:27:22;31.30;65.30
3850;DHT22;1940;51.052;13.678;2023-08-17T15:29:48;31.30;65.10
3850;DHT22;1940;51.052;13.678;2023-08-17T15:32:13;31.30;64.50
3850;DHT22;1940;51.052;13.678;2023-08-17T15:34:39;31.30;66.10
3850;DHT22;1940;51.052;13.678;2023-08-17T15:37:06;31.30;66.60
3850;DHT22;1940;51.052;13.678;2023-08-17T15:39:32;31.20;66.50
3850;DHT22;1940;51.052;13.678;2023-08-17T15:41:57;31.00;66.00
3850;DHT22;1940;51.052;13.678;2023-08-17T15:44:23;30.80;66.40
3850;DHT22;1940;51.052;13.678;2023-08-17T15:46:49;30.80;65.60
3850;DHT22;1940;51.052;13.678;2023-08-17T15:49:14;30.70;67.20
3850;DHT22;1940;51.052;13.678;2023-08-17T15:51:40;30.80;66.90
3850;DHT22;1940;51.052;13.678;2023-08-17T15:54:06;30.80;67.70